Record high temperature 38.5°C Record low temperature -6.1°C Record high gust 94.9 km/h Record high average 70.9 km/h Record daily rain 58.2 mm Record low windchill -9.9°C Record high barometer 1045.9 hPa Record low barometer 985.2 hPa
Daily high pressure 1019.6 hPa Daily low pressure 1015.3 hPa Daily low windchill 21.7°C Daily high heat index 30.6°C Daily high gust speed 27.8 kmh ESE Daily high average speed 21.9 kmh E
Stazione meteo Crema centro
ULTIMO RILEVAMENTO ALLE ORE: 21:05 GIORNO: 15 Giugno 2021 prossimo aggiornamento ore: 21:10
Tempo presenteDusk/Dry/Clear Temperatura attuale 27.8°C (82.0°F) (Indice calore 28.4°C ), temperatura apparente 29.5°C , Apparent temp solar 32.0°C
Temperatura massima (da mezzanotte)30.1°C alle ore: 17:46 Temperatura minima (da mezzanotte)21.7°C alle ore: 07:32
Forza media vento (dieci minuti)2.6 kmh (1.4 kts) Direzione vento (dieci minuti)ESE (112°)
Indice calore 28.4°C Massima forza (ultima ora)12.9 kmh (7.0 kts) alle ore: 20:26
Massima forza (da mezzanotte)27.8 kmh (15.0 kts) alle ore: 11:15 Massimo vento 1 minuto (da mezzanotte)21.9 kmh (11.8 kts) alle ore: 11:19
Pioggia (ultima ora)0.0 mm Pioggia (da mezzanotte)0.0 mm (0.00 in.)---
Pioggia Questo mese 5.1 mm (0.20 in.) Pioggia Questo anno 322.1 mm (12.68 in.)
Massima pioggia per minuto (ultima ora)0.0 mm/min Massima pioggia per ora (ultime 6 ore)0.0 mm/ore
Pioggia di ieri 0.0 mm DewPoint 17.0°C (Wet Bulb :21.0°C )
Umidita 52 %, Humidex 33.1°C Pressione S.L.M.1015.4 hPa (QNH 1015.4 hPa
Variazione pressione -0.1 hPa (ultima ora) Tendenza (ultime 1 ore)Stazionaria
Variazione pressione (ultime 12 ore)-4.2 hPa Variazione pressione (ultime 6 ore)-1.8 hPa
Current Solar 7 W/mē
Maximum solar (da mezzanotte) 879 W/mē Minimum solar (da mezzanotte)0 W/mē
Current 08:54 hours of sunshine today, current sky: Dusk/Dry/Clear
Sunshine hours for the year: 840:22 hrs Sunshine hours for the month: 118:03 hrs
Current evapotranspiration rate 8.3 mm per day. Yesterday's reading 7.6

Questa pagina e` aggiornata con i dati della stazione meteo DAVIS VP Premere Reload o Refresh per facilitare la lettura dei dati aggiornati.

Status report of weather station: IK2CHZ - Crema meteo



Weather report/warning/Metars

Milano / Linate, Italy (LIML) 45-26N 009-17E 103M
Jun 15, 2021 - 02:50 PM EDT / 2021.06.15 1850 UTC
Wind: from the SSE (150 degrees) at 5 MPH (4 KT):0
Visibility: greater than 7 mile(s):0
Temperature: 82 F (28 C)
Dew Point: 59 F (15 C)
Relative Humidity: 45%
Pressure (altimeter): 29.97 in. Hg (1015 hPa)
ob: LIML 151850Z 15004KT CAVOK 28/15 Q1015 NOSIG
cycle: 19
Bergamo / Orio Al Serio, Italy (LIME) 45-40N 009-42E 237M
Jun 15, 2021 - 02:50 PM EDT / 2021.06.15 1850 UTC
Wind: from the SE (130 degrees) at 6 MPH (5 KT):0
Visibility: greater than 7 mile(s):0
Temperature: 75 F (24 C)
Dew Point: 60 F (16 C)
Relative Humidity: 60%
Pressure (altimeter): 30.00 in. Hg (1016 hPa)
ob: LIME 151850Z 13005KT CAVOK 24/16 Q1016 NOSIG
cycle: 19
Piacenza, Italy (LIMS) 44-55N 009-44E 138M
Jun 15, 2021 - 01:55 PM EDT / 2021.06.15 1755 UTC
Wind: from the E (080 degrees) at 7 MPH (6 KT):0
Visibility: greater than 7 mile(s):0
Temperature: 84 F (29 C)
Dew Point: 66 F (19 C)
Relative Humidity: 54%
Pressure (altimeter): 29.97 in. Hg (1015 hPa)
ob: LIMS 151755Z 08006KT CAVOK 29/19 Q1015
cycle: 18